sensor_id;sensor_type;location;lat;lon;timestamp;P1;durP1;ratioP1;P2;durP2;ratioP2
59756;SDS011;45631;51.962;5.974;2024-02-26T00:01:12;9.10;;;4.10;;
59756;SDS011;45631;51.962;5.974;2024-02-26T00:03:40;8.38;;;4.25;;
59756;SDS011;45631;51.962;5.974;2024-02-26T00:06:11;7.78;;;4.30;;
59756;SDS011;45631;51.962;5.974;2024-02-26T00:08:42;6.00;;;3.67;;
59756;SDS011;45631;51.962;5.974;2024-02-26T00:11:11;6.13;;;3.80;;
59756;SDS011;45631;51.962;5.974;2024-02-26T00:13:39;6.65;;;3.80;;
59756;SDS011;45631;51.962;5.974;2024-02-26T00:16:08;7.63;;;4.18;;
59756;SDS011;45631;51.962;5.974;2024-02-26T00:18:36;8.38;;;4.38;;
59756;SDS011;45631;51.962;5.974;2024-02-26T00:21:04;7.68;;;4.05;;
59756;SDS011;45631;51.962;5.974;2024-02-26T00:23:32;7.38;;;4.10;;
59756;SDS011;45631;51.962;5.974;2024-02-26T00:26:00;7.13;;;3.63;;
59756;SDS011;45631;51.962;5.974;2024-02-26T00:28:31;7.38;;;4.40;;
59756;SDS011;45631;51.962;5.974;2024-02-26T00:30:59;6.68;;;3.85;;
59756;SDS011;45631;51.962;5.974;2024-02-26T00:33:29;7.40;;;4.13;;
59756;SDS011;45631;51.962;5.974;2024-02-26T00:35:58;7.45;;;4.15;;
59756;SDS011;45631;51.962;5.974;2024-02-26T00:38:26;7.97;;;4.57;;
59756;SDS011;45631;51.962;5.974;2024-02-26T00:40:54;7.15;;;4.45;;
59756;SDS011;45631;51.962;5.974;2024-02-26T00:43:22;8.07;;;4.65;;
59756;SDS011;45631;51.962;5.974;2024-02-26T00:45:52;10.13;;;4.60;;
59756;SDS011;45631;51.962;5.974;2024-02-26T00:48:20;8.63;;;4.60;;
59756;SDS011;45631;51.962;5.974;2024-02-26T00:50:49;7.97;;;4.78;;
59756;SDS011;45631;51.962;5.974;2024-02-26T00:53:17;9.85;;;5.25;;
59756;SDS011;45631;51.962;5.974;2024-02-26T00:55:45;10.07;;;6.10;;
59756;SDS011;45631;51.962;5.974;2024-02-26T00:58:13;7.63;;;5.22;;
59756;SDS011;45631;51.962;5.974;2024-02-26T01:00:41;9.52;;;5.45;;
59756;SDS011;45631;51.962;5.974;2024-02-26T01:03:11;7.72;;;4.78;;
59756;SDS011;45631;51.962;5.974;2024-02-26T01:05:39;8.13;;;4.63;;
59756;SDS011;45631;51.962;5.974;2024-02-26T01:08:08;8.93;;;4.97;;
59756;SDS011;45631;51.962;5.974;2024-02-26T01:10:36;8.45;;;5.10;;
59756;SDS011;45631;51.962;5.974;2024-02-26T01:13:05;8.63;;;4.72;;
59756;SDS011;45631;51.962;5.974;2024-02-26T01:15:34;7.95;;;4.88;;
59756;SDS011;45631;51.962;5.974;2024-02-26T01:18:02;10.90;;;4.85;;
59756;SDS011;45631;51.962;5.974;2024-02-26T01:20:32;8.80;;;4.90;;
59756;SDS011;45631;51.962;5.974;2024-02-26T01:23:00;7.43;;;4.50;;
59756;SDS011;45631;51.962;5.974;2024-02-26T01:25:29;6.78;;;4.55;;
59756;SDS011;45631;51.962;5.974;2024-02-26T01:27:57;7.80;;;4.47;;
59756;SDS011;45631;51.962;5.974;2024-02-26T01:30:25;7.30;;;4.32;;
59756;SDS011;45631;51.962;5.974;2024-02-26T01:32:53;7.35;;;4.07;;
59756;SDS011;45631;51.962;5.974;2024-02-26T01:35:21;7.70;;;4.70;;
59756;SDS011;45631;51.962;5.974;2024-02-26T01:37:51;7.85;;;4.60;;
59756;SDS011;45631;51.962;5.974;2024-02-26T01:40:19;8.40;;;4.72;;
59756;SDS011;45631;51.962;5.974;2024-02-26T01:42:47;6.75;;;3.90;;
59756;SDS011;45631;51.962;5.974;2024-02-26T01:45:16;6.07;;;3.65;;
59756;SDS011;45631;51.962;5.974;2024-02-26T01:47:49;7.47;;;4.50;;
59756;SDS011;45631;51.962;5.974;2024-02-26T01:50:19;9.35;;;4.63;;
59756;SDS011;45631;51.962;5.974;2024-02-26T01:52:49;8.35;;;4.90;;
59756;SDS011;45631;51.962;5.974;2024-02-26T01:55:19;7.18;;;4.40;;
59756;SDS011;45631;51.962;5.974;2024-02-26T01:57:48;7.35;;;4.25;;
59756;SDS011;45631;51.962;5.974;2024-02-26T02:00:18;9.32;;;4.60;;
59756;SDS011;45631;51.962;5.974;2024-02-26T02:02:49;7.65;;;4.18;;
59756;SDS011;45631;51.962;5.974;2024-02-26T02:05:19;8.63;;;4.32;;
59756;SDS011;45631;51.962;5.974;2024-02-26T02:07:48;8.52;;;4.82;;
59756;SDS011;45631;51.962;5.974;2024-02-26T02:10:17;7.40;;;4.50;;
59756;SDS011;45631;51.962;5.974;2024-02-26T02:12:50;9.23;;;4.70;;
59756;SDS011;45631;51.962;5.974;2024-02-26T02:15:18;8.38;;;4.82;;
59756;SDS011;45631;51.962;5.974;2024-02-26T02:17:47;8.52;;;4.65;;
59756;SDS011;45631;51.962;5.974;2024-02-26T02:20:16;8.02;;;4.65;;
59756;SDS011;45631;51.962;5.974;2024-02-26T02:22:47;8.52;;;4.65;;
59756;SDS011;45631;51.962;5.974;2024-02-26T02:25:15;9.00;;;4.82;;
59756;SDS011;45631;51.962;5.974;2024-02-26T02:27:43;8.60;;;4.80;;
59756;SDS011;45631;51.962;5.974;2024-02-26T02:30:12;8.20;;;4.57;;
59756;SDS011;45631;51.962;5.974;2024-02-26T02:32:42;8.82;;;4.93;;
59756;SDS011;45631;51.962;5.974;2024-02-26T02:35:11;8.75;;;5.32;;
59756;SDS011;45631;51.962;5.974;2024-02-26T02:37:39;10.63;;;5.13;;
59756;SDS011;45631;51.962;5.974;2024-02-26T02:40:09;7.88;;;4.70;;
59756;SDS011;45631;51.962;5.974;2024-02-26T02:42:37;8.18;;;5.55;;
59756;SDS011;45631;51.962;5.974;2024-02-26T02:45:05;8.07;;;4.63;;
59756;SDS011;45631;51.962;5.974;2024-02-26T02:47:35;8.07;;;5.20;;
59756;SDS011;45631;51.962;5.974;2024-02-26T02:50:04;8.18;;;5.05;;
59756;SDS011;45631;51.962;5.974;2024-02-26T02:52:33;8.68;;;5.25;;
59756;SDS011;45631;51.962;5.974;2024-02-26T02:55:01;8.80;;;5.18;;
59756;SDS011;45631;51.962;5.974;2024-02-26T02:57:30;7.68;;;5.00;;
59756;SDS011;45631;51.962;5.974;2024-02-26T03:00:00;8.40;;;5.25;;
59756;SDS011;45631;51.962;5.974;2024-02-26T03:02:30;8.05;;;4.88;;
59756;SDS011;45631;51.962;5.974;2024-02-26T03:04:58;7.05;;;4.40;;
59756;SDS011;45631;51.962;5.974;2024-02-26T03:07:27;7.65;;;4.45;;
59756;SDS011;45631;51.962;5.974;2024-02-26T03:09:55;9.75;;;5.38;;
59756;SDS011;45631;51.962;5.974;2024-02-26T03:12:23;7.93;;;4.78;;
59756;SDS011;45631;51.962;5.974;2024-02-26T03:14:53;8.32;;;5.10;;
59756;SDS011;45631;51.962;5.974;2024-02-26T03:17:22;9.25;;;5.05;;
59756;SDS011;45631;51.962;5.974;2024-02-26T03:19:51;8.27;;;5.10;;
59756;SDS011;45631;51.962;5.974;2024-02-26T03:22:20;7.40;;;4.70;;
59756;SDS011;45631;51.962;5.974;2024-02-26T03:24:49;9.93;;;4.75;;
59756;SDS011;45631;51.962;5.974;2024-02-26T03:27:17;7.82;;;4.97;;
59756;SDS011;45631;51.962;5.974;2024-02-26T03:29:45;8.68;;;5.38;;
59756;SDS011;45631;51.962;5.974;2024-02-26T03:32:16;7.80;;;5.10;;
59756;SDS011;45631;51.962;5.974;2024-02-26T03:34:44;7.90;;;4.65;;
59756;SDS011;45631;51.962;5.974;2024-02-26T03:37:14;8.90;;;5.53;;
59756;SDS011;45631;51.962;5.974;2024-02-26T03:39:43;9.68;;;5.28;;
59756;SDS011;45631;51.962;5.974;2024-02-26T03:42:11;8.63;;;5.03;;
59756;SDS011;45631;51.962;5.974;2024-02-26T03:44:39;10.40;;;5.28;;
59756;SDS011;45631;51.962;5.974;2024-02-26T03:47:08;7.85;;;5.07;;
59756;SDS011;45631;51.962;5.974;2024-02-26T03:49:37;8.13;;;4.80;;
59756;SDS011;45631;51.962;5.974;2024-02-26T03:52:06;8.35;;;5.00;;
59756;SDS011;45631;51.962;5.974;2024-02-26T03:54:34;7.55;;;4.75;;
59756;SDS011;45631;51.962;5.974;2024-02-26T03:57:02;8.77;;;4.78;;
59756;SDS011;45631;51.962;5.974;2024-02-26T03:59:31;7.13;;;4.90;;
59756;SDS011;45631;51.962;5.974;2024-02-26T04:01:59;7.55;;;4.53;;
59756;SDS011;45631;51.962;5.974;2024-02-26T04:04:28;9.68;;;4.45;;
59756;SDS011;45631;51.962;5.974;2024-02-26T04:06:57;8.18;;;4.63;;
59756;SDS011;45631;51.962;5.974;2024-02-26T04:09:26;7.70;;;4.60;;
59756;SDS011;45631;51.962;5.974;2024-02-26T04:11:55;7.53;;;4.20;;
59756;SDS011;45631;51.962;5.974;2024-02-26T04:14:23;9.68;;;4.25;;
59756;SDS011;45631;51.962;5.974;2024-02-26T04:16:52;7.50;;;4.25;;
59756;SDS011;45631;51.962;5.974;2024-02-26T04:19:24;6.78;;;4.38;;
59756;SDS011;45631;51.962;5.974;2024-02-26T04:21:52;7.05;;;4.03;;
59756;SDS011;45631;51.962;5.974;2024-02-26T04:24:21;7.43;;;4.78;;
59756;SDS011;45631;51.962;5.974;2024-02-26T04:26:50;8.30;;;4.95;;
59756;SDS011;45631;51.962;5.974;2024-02-26T04:29:18;8.10;;;4.90;;
59756;SDS011;45631;51.962;5.974;2024-02-26T04:31:46;9.00;;;5.10;;
59756;SDS011;45631;51.962;5.974;2024-02-26T04:34:14;8.50;;;5.10;;
59756;SDS011;45631;51.962;5.974;2024-02-26T04:36:43;8.10;;;5.18;;
59756;SDS011;45631;51.962;5.974;2024-02-26T04:39:11;9.00;;;4.97;;
59756;SDS011;45631;51.962;5.974;2024-02-26T04:41:40;9.52;;;4.72;;
59756;SDS011;45631;51.962;5.974;2024-02-26T04:44:09;9.43;;;4.97;;
59756;SDS011;45631;51.962;5.974;2024-02-26T04:46:37;8.13;;;4.50;;
59756;SDS011;45631;51.962;5.974;2024-02-26T04:49:08;7.75;;;4.75;;
59756;SDS011;45631;51.962;5.974;2024-02-26T04:51:37;9.80;;;5.45;;
59756;SDS011;45631;51.962;5.974;2024-02-26T04:54:05;8.43;;;5.38;;
59756;SDS011;45631;51.962;5.974;2024-02-26T04:56:33;8.73;;;5.25;;
59756;SDS011;45631;51.962;5.974;2024-02-26T04:59:02;8.80;;;5.45;;
59756;SDS011;45631;51.962;5.974;2024-02-26T05:01:30;9.93;;;5.35;;
59756;SDS011;45631;51.962;5.974;2024-02-26T05:04:01;8.40;;;5.10;;
59756;SDS011;45631;51.962;5.974;2024-02-26T05:06:29;7.72;;;4.63;;
59756;SDS011;45631;51.962;5.974;2024-02-26T05:08:58;10.10;;;5.30;;
59756;SDS011;45631;51.962;5.974;2024-02-26T05:11:26;9.25;;;5.30;;
59756;SDS011;45631;51.962;5.974;2024-02-26T05:13:54;10.00;;;5.35;;
59756;SDS011;45631;51.962;5.974;2024-02-26T05:16:24;7.70;;;4.97;;
59756;SDS011;45631;51.962;5.974;2024-02-26T05:18:53;8.60;;;5.05;;
59756;SDS011;45631;51.962;5.974;2024-02-26T05:21:25;9.15;;;5.18;;
59756;SDS011;45631;51.962;5.974;2024-02-26T05:23:53;9.15;;;5.20;;
59756;SDS011;45631;51.962;5.974;2024-02-26T05:26:24;8.60;;;5.18;;
59756;SDS011;45631;51.962;5.974;2024-02-26T05:28:52;7.57;;;4.72;;
59756;SDS011;45631;51.962;5.974;2024-02-26T05:31:30;9.30;;;5.22;;
59756;SDS011;45631;51.962;5.974;2024-02-26T05:33:58;9.90;;;5.47;;
59756;SDS011;45631;51.962;5.974;2024-02-26T05:36:26;10.15;;;5.75;;
59756;SDS011;45631;51.962;5.974;2024-02-26T05:38:59;9.27;;;4.90;;
59756;SDS011;45631;51.962;5.974;2024-02-26T05:41:28;8.50;;;5.22;;
59756;SDS011;45631;51.962;5.974;2024-02-26T05:43:56;10.77;;;5.68;;
59756;SDS011;45631;51.962;5.974;2024-02-26T05:46:24;7.65;;;4.63;;
59756;SDS011;45631;51.962;5.974;2024-02-26T05:48:55;8.73;;;5.40;;
59756;SDS011;45631;51.962;5.974;2024-02-26T05:51:23;8.32;;;5.40;;
59756;SDS011;45631;51.962;5.974;2024-02-26T05:53:51;9.00;;;5.00;;
59756;SDS011;45631;51.962;5.974;2024-02-26T05:56:21;8.45;;;4.88;;
59756;SDS011;45631;51.962;5.974;2024-02-26T05:58:50;8.98;;;5.25;;
59756;SDS011;45631;51.962;5.974;2024-02-26T06:01:20;9.23;;;5.68;;
59756;SDS011;45631;51.962;5.974;2024-02-26T06:03:48;9.57;;;5.28;;
59756;SDS011;45631;51.962;5.974;2024-02-26T06:06:18;9.38;;;5.10;;
59756;SDS011;45631;51.962;5.974;2024-02-26T06:08:48;9.13;;;5.25;;
59756;SDS011;45631;51.962;5.974;2024-02-26T06:11:17;8.52;;;5.32;;
59756;SDS011;45631;51.962;5.974;2024-02-26T06:13:45;8.70;;;4.85;;
59756;SDS011;45631;51.962;5.974;2024-02-26T06:16:13;8.95;;;5.25;;
59756;SDS011;45631;51.962;5.974;2024-02-26T06:18:41;7.80;;;4.93;;
59756;SDS011;45631;51.962;5.974;2024-02-26T06:21:10;9.05;;;5.18;;
59756;SDS011;45631;51.962;5.974;2024-02-26T06:23:40;7.47;;;4.85;;
59756;SDS011;45631;51.962;5.974;2024-02-26T06:26:08;8.93;;;4.93;;
59756;SDS011;45631;51.962;5.974;2024-02-26T06:28:37;10.10;;;5.22;;
59756;SDS011;45631;51.962;5.974;2024-02-26T06:31:07;8.25;;;5.32;;
59756;SDS011;45631;51.962;5.974;2024-02-26T06:33:37;8.75;;;4.75;;
59756;SDS011;45631;51.962;5.974;2024-02-26T06:36:06;9.13;;;5.00;;
59756;SDS011;45631;51.962;5.974;2024-02-26T06:38:34;8.90;;;5.40;;
59756;SDS011;45631;51.962;5.974;2024-02-26T06:41:04;8.48;;;4.90;;
59756;SDS011;45631;51.962;5.974;2024-02-26T06:43:32;9.60;;;5.63;;
59756;SDS011;45631;51.962;5.974;2024-02-26T06:46:00;9.18;;;5.22;;
59756;SDS011;45631;51.962;5.974;2024-02-26T06:48:28;8.93;;;5.57;;
59756;SDS011;45631;51.962;5.974;2024-02-26T06:50:57;9.63;;;5.97;;
59756;SDS011;45631;51.962;5.974;2024-02-26T06:53:25;8.98;;;6.13;;
59756;SDS011;45631;51.962;5.974;2024-02-26T06:55:53;10.10;;;6.35;;
59756;SDS011;45631;51.962;5.974;2024-02-26T06:58:23;10.15;;;6.40;;
59756;SDS011;45631;51.962;5.974;2024-02-26T07:00:51;10.43;;;6.95;;
59756;SDS011;45631;51.962;5.974;2024-02-26T07:03:19;8.98;;;5.95;;
59756;SDS011;45631;51.962;5.974;2024-02-26T07:05:49;10.35;;;6.28;;
59756;SDS011;45631;51.962;5.974;2024-02-26T07:08:17;8.82;;;5.68;;
59756;SDS011;45631;51.962;5.974;2024-02-26T07:10:46;9.93;;;6.35;;
59756;SDS011;45631;51.962;5.974;2024-02-26T07:13:14;9.68;;;6.30;;
59756;SDS011;45631;51.962;5.974;2024-02-26T07:15:44;10.20;;;6.88;;
59756;SDS011;45631;51.962;5.974;2024-02-26T07:18:12;11.38;;;6.60;;
59756;SDS011;45631;51.962;5.974;2024-02-26T07:20:40;10.93;;;6.97;;
59756;SDS011;45631;51.962;5.974;2024-02-26T07:23:09;10.82;;;6.95;;
59756;SDS011;45631;51.962;5.974;2024-02-26T07:25:37;10.77;;;6.47;;
59756;SDS011;45631;51.962;5.974;2024-02-26T07:28:05;11.35;;;6.80;;
59756;SDS011;45631;51.962;5.974;2024-02-26T07:30:33;9.90;;;6.53;;
59756;SDS011;45631;51.962;5.974;2024-02-26T07:33:03;11.57;;;7.18;;
59756;SDS011;45631;51.962;5.974;2024-02-26T07:35:31;10.75;;;6.75;;
59756;SDS011;45631;51.962;5.974;2024-02-26T07:38:00;11.93;;;7.07;;
59756;SDS011;45631;51.962;5.974;2024-02-26T07:40:28;10.35;;;6.90;;
59756;SDS011;45631;51.962;5.974;2024-02-26T07:42:56;11.38;;;6.95;;
59756;SDS011;45631;51.962;5.974;2024-02-26T07:45:24;11.63;;;7.47;;
59756;SDS011;45631;51.962;5.974;2024-02-26T07:47:52;14.38;;;8.05;;
59756;SDS011;45631;51.962;5.974;2024-02-26T07:50:22;12.73;;;8.27;;
59756;SDS011;45631;51.962;5.974;2024-02-26T07:52:50;12.20;;;8.13;;
59756;SDS011;45631;51.962;5.974;2024-02-26T07:55:19;12.63;;;8.90;;
59756;SDS011;45631;51.962;5.974;2024-02-26T07:57:48;13.55;;;8.50;;
59756;SDS011;45631;51.962;5.974;2024-02-26T08:00:16;13.50;;;8.88;;
59756;SDS011;45631;51.962;5.974;2024-02-26T08:02:44;16.30;;;9.38;;
59756;SDS011;45631;51.962;5.974;2024-02-26T08:05:16;15.40;;;9.80;;
59756;SDS011;45631;51.962;5.974;2024-02-26T08:07:46;15.32;;;9.60;;
59756;SDS011;45631;51.962;5.974;2024-02-26T08:10:15;14.48;;;10.27;;
59756;SDS011;45631;51.962;5.974;2024-02-26T08:12:43;17.02;;;10.88;;
59756;SDS011;45631;51.962;5.974;2024-02-26T08:15:12;15.00;;;10.02;;
59756;SDS011;45631;51.962;5.974;2024-02-26T08:17:41;16.33;;;11.10;;
59756;SDS011;45631;51.962;5.974;2024-02-26T08:20:09;17.67;;;10.57;;
59756;SDS011;45631;51.962;5.974;2024-02-26T08:22:38;16.88;;;11.00;;
59756;SDS011;45631;51.962;5.974;2024-02-26T08:25:08;17.48;;;10.90;;
59756;SDS011;45631;51.962;5.974;2024-02-26T08:27:37;18.27;;;11.23;;
59756;SDS011;45631;51.962;5.974;2024-02-26T08:30:06;16.23;;;10.20;;
59756;SDS011;45631;51.962;5.974;2024-02-26T08:32:35;16.75;;;11.38;;
59756;SDS011;45631;51.962;5.974;2024-02-26T08:35:03;16.67;;;10.68;;
59756;SDS011;45631;51.962;5.974;2024-02-26T08:37:32;17.55;;;11.68;;
59756;SDS011;45631;51.962;5.974;2024-02-26T08:40:00;16.95;;;10.30;;
59756;SDS011;45631;51.962;5.974;2024-02-26T08:45:05;18.00;;;10.80;;
59756;SDS011;45631;51.962;5.974;2024-02-26T08:47:34;15.88;;;10.02;;
59756;SDS011;45631;51.962;5.974;2024-02-26T08:50:03;17.42;;;9.73;;
59756;SDS011;45631;51.962;5.974;2024-02-26T08:52:32;16.30;;;10.13;;
59756;SDS011;45631;51.962;5.974;2024-02-26T08:55:04;16.80;;;10.10;;
59756;SDS011;45631;51.962;5.974;2024-02-26T08:57:32;16.65;;;10.18;;
59756;SDS011;45631;51.962;5.974;2024-02-26T09:00:02;18.05;;;10.38;;
59756;SDS011;45631;51.962;5.974;2024-02-26T09:02:32;19.58;;;10.43;;
59756;SDS011;45631;51.962;5.974;2024-02-26T09:05:00;19.58;;;10.60;;
59756;SDS011;45631;51.962;5.974;2024-02-26T09:07:28;17.27;;;10.82;;
59756;SDS011;45631;51.962;5.974;2024-02-26T09:09:56;17.48;;;10.52;;
59756;SDS011;45631;51.962;5.974;2024-02-26T09:12:24;17.80;;;10.20;;
59756;SDS011;45631;51.962;5.974;2024-02-26T09:14:54;18.65;;;10.82;;
59756;SDS011;45631;51.962;5.974;2024-02-26T09:17:24;18.80;;;10.27;;
59756;SDS011;45631;51.962;5.974;2024-02-26T09:19:52;19.27;;;11.68;;
59756;SDS011;45631;51.962;5.974;2024-02-26T09:22:20;19.58;;;11.63;;
59756;SDS011;45631;51.962;5.974;2024-02-26T09:24:49;20.67;;;10.90;;
59756;SDS011;45631;51.962;5.974;2024-02-26T09:27:18;19.83;;;11.27;;
59756;SDS011;45631;51.962;5.974;2024-02-26T09:29:47;19.35;;;11.18;;
59756;SDS011;45631;51.962;5.974;2024-02-26T09:32:16;21.40;;;11.77;;
59756;SDS011;45631;51.962;5.974;2024-02-26T09:34:44;21.52;;;11.90;;
59756;SDS011;45631;51.962;5.974;2024-02-26T09:37:13;19.30;;;11.57;;
59756;SDS011;45631;51.962;5.974;2024-02-26T09:39:47;22.65;;;11.98;;
59756;SDS011;45631;51.962;5.974;2024-02-26T09:42:19;22.25;;;11.88;;
59756;SDS011;45631;51.962;5.974;2024-02-26T09:44:47;23.33;;;12.50;;
59756;SDS011;45631;51.962;5.974;2024-02-26T09:47:23;22.85;;;12.38;;
59756;SDS011;45631;51.962;5.974;2024-02-26T09:52:24;19.88;;;12.18;;
59756;SDS011;45631;51.962;5.974;2024-02-26T09:54:53;19.67;;;11.10;;
59756;SDS011;45631;51.962;5.974;2024-02-26T09:57:22;20.98;;;11.95;;
59756;SDS011;45631;51.962;5.974;2024-02-26T09:59:52;24.25;;;12.85;;
59756;SDS011;45631;51.962;5.974;2024-02-26T10:02:23;23.27;;;12.35;;
59756;SDS011;45631;51.962;5.974;2024-02-26T10:04:51;22.27;;;12.95;;
59756;SDS011;45631;51.962;5.974;2024-02-26T10:07:22;22.60;;;11.80;;
59756;SDS011;45631;51.962;5.974;2024-02-26T10:09:51;20.55;;;11.73;;
59756;SDS011;45631;51.962;5.974;2024-02-26T10:12:20;19.98;;;11.60;;
59756;SDS011;45631;51.962;5.974;2024-02-26T10:14:49;18.38;;;10.95;;
59756;SDS011;45631;51.962;5.974;2024-02-26T10:17:17;20.92;;;11.77;;
59756;SDS011;45631;51.962;5.974;2024-02-26T10:19:49;23.05;;;11.20;;
59756;SDS011;45631;51.962;5.974;2024-02-26T10:22:18;20.88;;;11.68;;
59756;SDS011;45631;51.962;5.974;2024-02-26T10:24:49;20.23;;;11.00;;
59756;SDS011;45631;51.962;5.974;2024-02-26T10:27:19;20.50;;;11.70;;
59756;SDS011;45631;51.962;5.974;2024-02-26T10:29:51;18.35;;;10.32;;
59756;SDS011;45631;51.962;5.974;2024-02-26T10:32:19;19.20;;;10.98;;
59756;SDS011;45631;51.962;5.974;2024-02-26T10:34:49;17.83;;;10.25;;
59756;SDS011;45631;51.962;5.974;2024-02-26T10:37:23;20.48;;;11.38;;
59756;SDS011;45631;51.962;5.974;2024-02-26T10:39:55;19.80;;;11.20;;
59756;SDS011;45631;51.962;5.974;2024-02-26T10:42:26;17.13;;;9.57;;
59756;SDS011;45631;51.962;5.974;2024-02-26T10:44:54;17.83;;;10.02;;
59756;SDS011;45631;51.962;5.974;2024-02-26T10:47:23;16.95;;;9.95;;
59756;SDS011;45631;51.962;5.974;2024-02-26T10:49:53;16.70;;;10.48;;
59756;SDS011;45631;51.962;5.974;2024-02-26T10:52:22;18.58;;;10.98;;
59756;SDS011;45631;51.962;5.974;2024-02-26T10:54:53;20.08;;;10.68;;
59756;SDS011;45631;51.962;5.974;2024-02-26T10:57:26;20.30;;;11.73;;
59756;SDS011;45631;51.962;5.974;2024-02-26T10:59:59;16.98;;;10.43;;
59756;SDS011;45631;51.962;5.974;2024-02-26T11:02:31;18.17;;;11.48;;
59756;SDS011;45631;51.962;5.974;2024-02-26T11:05:03;18.95;;;11.40;;
59756;SDS011;45631;51.962;5.974;2024-02-26T11:07:31;19.20;;;11.73;;
59756;SDS011;45631;51.962;5.974;2024-02-26T11:10:00;18.85;;;11.52;;
59756;SDS011;45631;51.962;5.974;2024-02-26T11:12:30;18.45;;;10.77;;
59756;SDS011;45631;51.962;5.974;2024-02-26T11:15:02;20.63;;;11.95;;
59756;SDS011;45631;51.962;5.974;2024-02-26T11:17:31;19.52;;;11.57;;
59756;SDS011;45631;51.962;5.974;2024-02-26T11:20:02;19.83;;;11.63;;
59756;SDS011;45631;51.962;5.974;2024-02-26T11:22:32;21.27;;;11.77;;
59756;SDS011;45631;51.962;5.974;2024-02-26T11:25:00;18.65;;;11.38;;
59756;SDS011;45631;51.962;5.974;2024-02-26T11:27:29;19.75;;;11.95;;
59756;SDS011;45631;51.962;5.974;2024-02-26T11:30:00;18.48;;;11.88;;
59756;SDS011;45631;51.962;5.974;2024-02-26T11:32:32;18.27;;;11.23;;
59756;SDS011;45631;51.962;5.974;2024-02-26T11:35:03;18.20;;;11.15;;
59756;SDS011;45631;51.962;5.974;2024-02-26T11:37:33;20.75;;;11.32;;
59756;SDS011;45631;51.962;5.974;2024-02-26T11:40:09;17.23;;;10.20;;
59756;SDS011;45631;51.962;5.974;2024-02-26T11:42:43;17.40;;;9.88;;
59756;SDS011;45631;51.962;5.974;2024-02-26T11:48:20;17.33;;;10.45;;
59756;SDS011;45631;51.962;5.974;2024-02-26T11:50:51;17.73;;;10.13;;
59756;SDS011;45631;51.962;5.974;2024-02-26T11:53:21;16.80;;;10.07;;
59756;SDS011;45631;51.962;5.974;2024-02-26T11:58:48;16.40;;;9.98;;
59756;SDS011;45631;51.962;5.974;2024-02-26T12:01:39;15.88;;;9.60;;
59756;SDS011;45631;51.962;5.974;2024-02-26T12:04:12;16.05;;;8.95;;
59756;SDS011;45631;51.962;5.974;2024-02-26T12:09:32;15.80;;;8.85;;
59756;SDS011;45631;51.962;5.974;2024-02-26T12:12:03;14.65;;;9.13;;
59756;SDS011;45631;51.962;5.974;2024-02-26T12:14:33;14.85;;;9.23;;
59756;SDS011;45631;51.962;5.974;2024-02-26T12:17:03;15.48;;;9.02;;
59756;SDS011;45631;51.962;5.974;2024-02-26T12:19:33;16.40;;;8.63;;
59756;SDS011;45631;51.962;5.974;2024-02-26T12:22:09;14.32;;;7.88;;
59756;SDS011;45631;51.962;5.974;2024-02-26T12:24:41;12.93;;;7.70;;
59756;SDS011;45631;51.962;5.974;2024-02-26T12:27:09;12.50;;;7.40;;
59756;SDS011;45631;51.962;5.974;2024-02-26T12:29:37;12.55;;;7.15;;
59756;SDS011;45631;51.962;5.974;2024-02-26T12:32:06;13.82;;;7.57;;
59756;SDS011;45631;51.962;5.974;2024-02-26T12:34:34;14.23;;;7.60;;
59756;SDS011;45631;51.962;5.974;2024-02-26T12:37:03;12.60;;;7.40;;
59756;SDS011;45631;51.962;5.974;2024-02-26T12:39:32;12.52;;;6.85;;
59756;SDS011;45631;51.962;5.974;2024-02-26T12:42:01;12.30;;;7.03;;
59756;SDS011;45631;51.962;5.974;2024-02-26T12:44:29;11.68;;;6.65;;
59756;SDS011;45631;51.962;5.974;2024-02-26T12:47:02;12.50;;;6.75;;
59756;SDS011;45631;51.962;5.974;2024-02-26T12:49:31;10.90;;;6.35;;
59756;SDS011;45631;51.962;5.974;2024-02-26T12:52:00;11.95;;;6.18;;
59756;SDS011;45631;51.962;5.974;2024-02-26T12:54:29;12.52;;;6.50;;
59756;SDS011;45631;51.962;5.974;2024-02-26T12:57:01;12.70;;;6.95;;
59756;SDS011;45631;51.962;5.974;2024-02-26T12:59:35;11.93;;;6.90;;
59756;SDS011;45631;51.962;5.974;2024-02-26T13:02:05;12.57;;;7.50;;
59756;SDS011;45631;51.962;5.974;2024-02-26T13:04:34;12.35;;;6.70;;
59756;SDS011;45631;51.962;5.974;2024-02-26T13:07:03;11.40;;;6.63;;
59756;SDS011;45631;51.962;5.974;2024-02-26T13:09:32;13.07;;;7.60;;
59756;SDS011;45631;51.962;5.974;2024-02-26T13:12:05;11.35;;;6.93;;
59756;SDS011;45631;51.962;5.974;2024-02-26T13:14:34;11.55;;;7.05;;
59756;SDS011;45631;51.962;5.974;2024-02-26T13:17:02;13.95;;;7.38;;
59756;SDS011;45631;51.962;5.974;2024-02-26T13:19:31;12.88;;;6.80;;
59756;SDS011;45631;51.962;5.974;2024-02-26T13:22:03;13.48;;;7.15;;
59756;SDS011;45631;51.962;5.974;2024-02-26T13:24:33;11.80;;;7.05;;
59756;SDS011;45631;51.962;5.974;2024-02-26T13:27:01;13.27;;;6.53;;
59756;SDS011;45631;51.962;5.974;2024-02-26T13:29:34;12.05;;;6.82;;
59756;SDS011;45631;51.962;5.974;2024-02-26T13:32:03;14.90;;;7.38;;
59756;SDS011;45631;51.962;5.974;2024-02-26T13:34:32;12.50;;;7.63;;
59756;SDS011;45631;51.962;5.974;2024-02-26T13:37:02;11.95;;;7.15;;
59756;SDS011;45631;51.962;5.974;2024-02-26T13:39:32;13.68;;;7.53;;
59756;SDS011;45631;51.962;5.974;2024-02-26T13:42:03;12.43;;;7.97;;
59756;SDS011;45631;51.962;5.974;2024-02-26T13:44:35;12.63;;;7.78;;
59756;SDS011;45631;51.962;5.974;2024-02-26T13:47:06;12.65;;;7.53;;
59756;SDS011;45631;51.962;5.974;2024-02-26T13:49:34;13.75;;;7.90;;
59756;SDS011;45631;51.962;5.974;2024-02-26T13:52:02;13.77;;;7.82;;
59756;SDS011;45631;51.962;5.974;2024-02-26T13:54:31;15.43;;;8.55;;
59756;SDS011;45631;51.962;5.974;2024-02-26T13:57:00;12.40;;;7.22;;
59756;SDS011;45631;51.962;5.974;2024-02-26T13:59:28;12.50;;;7.70;;
59756;SDS011;45631;51.962;5.974;2024-02-26T14:02:01;12.63;;;7.47;;
59756;SDS011;45631;51.962;5.974;2024-02-26T14:04:29;11.18;;;7.05;;
59756;SDS011;45631;51.962;5.974;2024-02-26T14:06:57;12.60;;;7.35;;
59756;SDS011;45631;51.962;5.974;2024-02-26T14:09:26;13.98;;;7.63;;
59756;SDS011;45631;51.962;5.974;2024-02-26T14:14:36;12.90;;;7.55;;
59756;SDS011;45631;51.962;5.974;2024-02-26T14:17:08;12.57;;;7.38;;
59756;SDS011;45631;51.962;5.974;2024-02-26T14:19:36;12.15;;;7.22;;
59756;SDS011;45631;51.962;5.974;2024-02-26T14:22:06;11.95;;;7.30;;
59756;SDS011;45631;51.962;5.974;2024-02-26T14:24:35;11.60;;;7.10;;
59756;SDS011;45631;51.962;5.974;2024-02-26T14:27:03;11.73;;;7.35;;
59756;SDS011;45631;51.962;5.974;2024-02-26T14:29:32;11.70;;;7.35;;
59756;SDS011;45631;51.962;5.974;2024-02-26T14:32:00;12.35;;;7.43;;
59756;SDS011;45631;51.962;5.974;2024-02-26T14:34:30;12.93;;;7.70;;
59756;SDS011;45631;51.962;5.974;2024-02-26T14:36:59;12.55;;;6.97;;
59756;SDS011;45631;51.962;5.974;2024-02-26T14:39:27;12.63;;;7.50;;
59756;SDS011;45631;51.962;5.974;2024-02-26T14:41:55;13.25;;;7.18;;
59756;SDS011;45631;51.962;5.974;2024-02-26T14:44:25;11.48;;;6.40;;
59756;SDS011;45631;51.962;5.974;2024-02-26T14:46:53;12.00;;;7.18;;
59756;SDS011;45631;51.962;5.974;2024-02-26T14:49:21;13.35;;;7.63;;
59756;SDS011;45631;51.962;5.974;2024-02-26T14:51:51;11.18;;;6.68;;
59756;SDS011;45631;51.962;5.974;2024-02-26T14:54:19;11.68;;;6.72;;
59756;SDS011;45631;51.962;5.974;2024-02-26T14:56:47;11.23;;;6.80;;
59756;SDS011;45631;51.962;5.974;2024-02-26T14:59:16;12.35;;;7.20;;
59756;SDS011;45631;51.962;5.974;2024-02-26T15:01:44;11.30;;;6.63;;
59756;SDS011;45631;51.962;5.974;2024-02-26T15:04:13;11.48;;;6.65;;
59756;SDS011;45631;51.962;5.974;2024-02-26T15:06:42;11.02;;;6.40;;